Time;durP1;ratioP1;P1;durP2;ratioP2;P2;SDS_P1;SDS_P2;PMS_P1;PMS_P2;Temp;Humidity;BMP_temperature;BMP_pressure;BME280_temperature;BME280_humidity;BME280_pressure;Samples;Min_cycle;Max_cycle;Signal;HPM_P1;HPM_P2
2021/05/30 00:00:38;;;;;;;10.43;5.37;;;14.60;66.00;;;;;;10605976;27;20240;-23
2021/05/30 00:06:00;;;;;;;7.00;5.67;;;14.60;66.20;;;;;;10611515;27;20222;-23
2021/05/30 00:11:22;;;;;;;6.30;5.20;;;14.60;66.00;;;;;;10584756;28;20215;-22
2021/05/30 00:16:45;;;;;;;6.67;5.47;;;14.50;66.00;;;;;;10579505;28;20195;-23
2021/05/30 00:22:06;;;;;;;10.13;6.03;;;14.50;66.10;;;;;;10614209;28;20210;-24
2021/05/30 00:27:29;;;;;;;6.47;5.23;;;14.50;65.70;;;;;;10575780;28;20219;-22
2021/05/30 00:32:50;;;;;;;8.37;5.17;;;14.50;65.10;;;;;;10619109;27;20230;-22
2021/05/30 00:38:12;;;;;;;7.77;5.53;;;14.40;65.00;;;;;;10576086;28;20194;-22
2021/05/30 00:43:44;;;;;;;6.20;4.87;;;14.40;64.80;;;;;;10608977;28;20225;-23
2021/05/30 00:49:06;;;;;;;7.20;4.97;;;14.30;64.90;;;;;;10612499;27;20271;-22
2021/05/30 00:54:27;;;;;;;7.03;4.30;;;14.20;64.80;;;;;;10618075;28;20213;-22
2021/05/30 00:59:50;;;;;;;5.20;4.60;;;14.20;64.80;;;;;;10618145;28;20193;-24
2021/05/30 01:05:12;;;;;;;8.23;4.73;;;14.10;64.80;;;;;;10588992;28;20642;-23
2021/05/30 01:10:36;;;;;;;7.17;5.50;;;14.10;65.50;;;;;;10575608;28;20196;-25
2021/05/30 01:15:59;;;;;;;5.67;4.40;;;14.10;65.10;;;;;;10574166;28;20191;-23
2021/05/30 01:21:21;;;;;;;5.87;4.90;;;14.10;65.10;;;;;;10583322;27;20222;-23
2021/05/30 01:26:44;;;;;;;5.83;5.10;;;14.00;64.80;;;;;;10582613;27;20219;-24
2021/05/30 01:32:07;;;;;;;5.47;4.73;;;14.00;64.50;;;;;;10624816;27;20286;-22
2021/05/30 01:37:28;;;;;;;5.33;4.63;;;13.90;64.60;;;;;;10630924;27;20558;-22
2021/05/30 01:42:53;;;;;;;5.57;4.90;;;13.90;64.70;;;;;;10607603;22;20238;-26
2021/05/30 01:48:15;;;;;;;7.90;4.97;;;13.90;64.20;;;;;;10535343;28;20640;-24
2021/05/30 01:53:38;;;;;;;7.23;4.50;;;13.80;64.20;;;;;;10527327;28;20223;-26
2021/05/30 01:59:03;;;;;;;7.57;4.43;;;13.80;64.20;;;;;;10529170;28;20578;-25
2021/05/30 02:04:28;;;;;;;7.40;4.60;;;13.70;64.20;;;;;;10523101;28;20221;-24
2021/05/30 02:09:50;;;;;;;8.77;4.70;;;13.70;63.90;;;;;;10492597;28;20201;-27
2021/05/30 02:15:14;;;;;;;6.97;5.03;;;13.70;64.30;;;;;;10484329;28;20239;-28
2021/05/30 02:20:37;;;;;;;11.07;5.23;;;13.70;64.10;;;;;;10456994;28;20193;-25
2021/05/30 02:26:02;;;;;;;10.47;5.33;;;13.60;64.40;;;;;;10464364;28;20228;-25
2021/05/30 02:31:25;;;;;;;6.57;5.17;;;13.60;64.30;;;;;;10477127;28;20208;-25
2021/05/30 02:36:46;;;;;;;6.83;4.83;;;13.60;64.20;;;;;;10519625;28;20195;-24
2021/05/30 02:42:09;;;;;;;6.63;4.70;;;13.50;64.10;;;;;;10524105;28;20600;-23
2021/05/30 02:47:32;;;;;;;7.30;4.70;;;13.50;64.10;;;;;;10488420;28;20208;-28
2021/05/30 02:52:53;;;;;;;7.33;5.20;;;13.40;64.20;;;;;;10454697;28;20221;-24
2021/05/30 02:58:15;;;;;;;6.77;5.17;;;13.40;64.10;;;;;;10455122;28;20668;-28
2021/05/30 03:03:37;;;;;;;9.73;5.73;;;13.40;64.40;;;;;;10454825;28;20608;-25
2021/05/30 03:08:59;;;;;;;7.73;6.33;;;13.40;64.40;;;;;;10457015;28;20215;-24
2021/05/30 03:14:21;;;;;;;6.73;5.53;;;13.40;64.60;;;;;;10494080;28;20208;-26
2021/05/30 03:19:43;;;;;;;9.77;6.70;;;13.40;64.50;;;;;;10493754;28;20199;-25
2021/05/30 03:25:06;;;;;;;6.43;5.83;;;13.40;64.50;;;;;;10493605;28;20223;-24
2021/05/30 03:30:27;;;;;;;8.80;5.33;;;13.30;64.20;;;;;;10499646;28;20198;-25
2021/05/30 03:35:51;;;;;;;6.53;5.00;;;13.30;64.30;;;;;;10453182;28;20205;-31
2021/05/30 03:41:14;;;;;;;7.57;4.23;;;13.30;63.80;;;;;;10478968;28;20287;-25
2021/05/30 03:46:36;;;;;;;4.93;3.90;;;13.30;63.50;;;;;;10460109;28;20681;-24
2021/05/30 03:51:59;;;;;;;5.67;4.10;;;13.30;62.70;;;;;;10451834;28;20213;-26
2021/05/30 03:57:20;;;;;;;5.37;4.10;;;13.30;63.30;;;;;;10452180;28;20303;-23
2021/05/30 04:02:42;;;;;;;7.23;3.93;;;13.20;63.10;;;;;;10471570;28;20222;-24
2021/05/30 04:08:05;;;;;;;4.93;3.77;;;13.10;63.40;;;;;;10501004;28;20231;-24
2021/05/30 04:13:26;;;;;;;5.50;4.30;;;13.10;63.50;;;;;;10492756;28;20212;-26
2021/05/30 04:18:48;;;;;;;5.00;4.20;;;13.10;63.40;;;;;;10490439;28;20195;-26
2021/05/30 04:24:10;;;;;;;6.87;4.50;;;13.00;63.60;;;;;;10493083;28;20583;-24
2021/05/30 04:29:32;;;;;;;7.07;5.03;;;13.00;63.70;;;;;;10498704;28;20230;-25
2021/05/30 04:34:54;;;;;;;5.30;4.17;;;13.00;64.30;;;;;;10519985;28;20271;-25
2021/05/30 04:40:18;;;;;;;6.50;4.80;;;13.10;64.70;;;;;;10529259;28;20192;-25
2021/05/30 04:45:39;;;;;;;6.67;4.93;;;13.10;64.90;;;;;;10473554;28;20231;-24
2021/05/30 04:51:09;;;;;;;6.33;4.87;;;13.20;65.20;;;;;;10522107;28;20199;-25
2021/05/30 04:56:31;;;;;;;7.20;5.20;;;13.20;65.30;;;;;;10515377;28;20188;-24
2021/05/30 05:01:53;;;;;;;10.03;5.67;;;13.10;65.90;;;;;;10499535;28;20223;-26
2021/05/30 05:07:15;;;;;;;9.87;5.60;;;13.30;66.10;;;;;;10499913;28;20582;-23
2021/05/30 05:12:37;;;;;;;9.23;5.83;;;13.30;66.40;;;;;;10498035;28;20212;-24
2021/05/30 05:18:10;;;;;;;9.50;6.97;;;13.40;66.80;;;;;;10499844;28;20196;-25
2021/05/30 05:23:32;;;;;;;11.17;7.20;;;13.50;68.10;;;;;;10498848;28;20212;-24
2021/05/30 05:28:54;;;;;;;15.63;8.17;;;13.70;68.40;;;;;;10499620;28;20235;-25
2021/05/30 05:34:16;;;;;;;14.23;8.73;;;13.80;68.30;;;;;;10520746;28;20224;-24
2021/05/30 05:39:38;;;;;;;16.50;10.27;;;13.40;70.80;;;;;;10494496;28;20699;-25
2021/05/30 05:45:00;;;;;;;16.63;9.97;;;13.20;72.60;;;;;;10540115;28;20481;-24
2021/05/30 05:50:23;;;;;;;14.30;10.80;;;13.20;73.70;;;;;;10540262;28;20191;-23
2021/05/30 05:55:45;;;;;;;19.83;11.93;;;13.30;74.20;;;;;;10539034;28;20222;-26
2021/05/30 06:01:09;;;;;;;18.37;11.93;;;13.40;73.90;;;;;;10539740;28;20616;-25
2021/05/30 06:06:32;;;;;;;16.07;10.97;;;13.60;73.60;;;;;;10496220;28;20213;-23
2021/05/30 06:11:54;;;;;;;16.10;10.37;;;13.80;73.20;;;;;;10456384;28;20217;-29
2021/05/30 06:17:16;;;;;;;14.23;10.00;;;14.00;73.40;;;;;;10496177;28;20275;-27
2021/05/30 06:22:38;;;;;;;14.03;8.87;;;14.20;73.10;;;;;;10496829;28;20220;-27
2021/05/30 06:28:01;;;;;;;14.47;9.43;;;14.40;71.00;;;;;;10461900;28;20232;-24
2021/05/30 06:33:23;;;;;;;13.20;8.37;;;14.50;70.10;;;;;;10505822;28;20514;-24
2021/05/30 06:38:45;;;;;;;12.90;7.57;;;14.60;70.90;;;;;;10473940;28;20189;-26
2021/05/30 06:44:07;;;;;;;10.87;7.20;;;14.70;69.70;;;;;;10528774;28;20234;-23
2021/05/30 06:49:30;;;;;;;12.33;6.87;;;14.90;70.20;;;;;;10454374;28;20221;-25
2021/05/30 06:54:52;;;;;;;11.27;5.63;;;14.90;69.50;;;;;;10499205;28;20699;-24
2021/05/30 07:00:15;;;;;;;10.60;6.67;;;15.00;69.40;;;;;;10495028;28;20207;-25
2021/05/30 07:05:37;;;;;;;7.47;4.87;;;15.10;69.80;;;;;;10490800;28;20588;-23
2021/05/30 07:10:59;;;;;;;8.53;5.43;;;15.20;69.70;;;;;;10455242;28;20196;-27
2021/05/30 07:16:21;;;;;;;7.43;4.40;;;15.30;69.90;;;;;;10452696;28;20243;-23
2021/05/30 07:21:43;;;;;;;10.13;4.20;;;15.40;69.30;;;;;;10453179;28;20213;-26
2021/05/30 07:27:06;;;;;;;7.97;4.43;;;15.50;68.90;;;;;;10452522;28;20213;-26
2021/05/30 07:32:27;;;;;;;8.70;4.10;;;15.50;68.70;;;;;;10491348;28;20289;-22
2021/05/30 07:37:50;;;;;;;8.50;3.77;;;15.60;68.30;;;;;;10504793;28;20200;-21
2021/05/30 07:43:11;;;;;;;5.60;3.30;;;15.60;68.00;;;;;;10523764;28;20721;-25
2021/05/30 07:48:33;;;;;;;6.73;3.93;;;15.70;68.00;;;;;;10514547;22;20236;-26
2021/05/30 07:53:56;;;;;;;6.53;3.70;;;15.80;68.10;;;;;;10495409;28;20671;-25
2021/05/30 07:59:18;;;;;;;6.30;3.47;;;15.80;68.00;;;;;;10513452;28;20212;-23
2021/05/30 08:04:39;;;;;;;5.50;3.97;;;15.80;67.90;;;;;;10520246;28;20686;-25
2021/05/30 08:10:02;;;;;;;7.20;4.10;;;15.90;67.90;;;;;;10525077;28;20620;-23
2021/05/30 08:15:24;;;;;;;6.63;3.90;;;15.90;67.80;;;;;;10493494;28;20238;-24
2021/05/30 08:20:46;;;;;;;5.93;3.57;;;16.00;68.00;;;;;;10497066;28;20215;-25
2021/05/30 08:26:09;;;;;;;6.47;3.20;;;16.00;68.10;;;;;;10520318;28;20227;-24
2021/05/30 08:31:30;;;;;;;5.90;3.37;;;16.00;67.60;;;;;;10527720;28;20214;-23
2021/05/30 08:36:52;;;;;;;8.07;3.00;;;16.10;67.20;;;;;;10531042;28;20202;-23
2021/05/30 08:42:14;;;;;;;4.00;2.80;;;16.10;66.90;;;;;;10514064;28;20253;-25
2021/05/30 08:47:36;;;;;;;5.03;3.60;;;16.10;66.80;;;;;;10500045;28;20223;-23
2021/05/30 08:52:58;;;;;;;7.07;3.60;;;16.20;67.00;;;;;;10500147;28;20594;-23
2021/05/30 08:58:20;;;;;;;5.80;3.20;;;16.20;67.30;;;;;;10499853;28;20213;-24
2021/05/30 09:03:54;;;;;;;5.87;3.37;;;16.30;67.40;;;;;;10525264;28;20201;-24
2021/05/30 09:09:15;;;;;;;6.03;3.50;;;16.30;67.60;;;;;;10539769;28;20691;-25
2021/05/30 09:14:45;;;;;;;5.40;3.60;;;16.40;67.60;;;;;;10540312;28;20196;-23
2021/05/30 09:20:08;;;;;;;5.13;3.47;;;16.40;67.50;;;;;;10541349;28;20204;-23
2021/05/30 09:25:30;;;;;;;5.47;3.53;;;16.40;67.80;;;;;;10541248;28;20205;-24
2021/05/30 09:31:01;;;;;;;6.77;4.00;;;16.50;67.90;;;;;;10514024;28;20212;-24
2021/05/30 09:36:23;;;;;;;9.00;4.10;;;16.50;68.00;;;;;;10536890;28;20236;-25
2021/05/30 09:41:45;;;;;;;6.17;3.70;;;16.50;67.50;;;;;;10526644;28;20224;-23
2021/05/30 09:47:31;;;;;;;5.33;3.60;;;16.50;67.30;;;;;;10524984;28;20281;-25
2021/05/30 09:52:53;;;;;;;6.10;3.50;;;16.60;67.40;;;;;;10537337;28;20212;-25
2021/05/30 09:58:17;;;;;;;6.37;4.73;;;16.60;67.80;;;;;;10513584;28;20208;-25
2021/05/30 10:03:40;;;;;;;6.10;3.57;;;16.60;68.20;;;;;;10496712;28;20197;-24
2021/05/30 10:09:02;;;;;;;5.17;3.40;;;16.60;68.00;;;;;;10517273;28;20719;-24
2021/05/30 10:14:23;;;;;;;8.07;3.93;;;16.60;67.60;;;;;;10533042;28;20201;-25
2021/05/30 10:19:47;;;;;;;6.60;3.50;;;16.60;67.70;;;;;;10532538;28;20212;-23
2021/05/30 10:25:10;;;;;;;3.80;2.83;;;16.60;67.70;;;;;;10532219;28;20204;-24
2021/05/30 10:30:32;;;;;;;3.70;3.00;;;16.60;67.70;;;;;;10525709;28;20259;-25
2021/05/30 10:35:55;;;;;;;4.27;2.70;;;16.60;67.60;;;;;;10490167;28;20189;-24
2021/05/30 10:41:18;;;;;;;4.77;3.17;;;16.60;67.50;;;;;;10503180;28;20224;-27
2021/05/30 10:46:49;;;;;;;3.80;2.60;;;16.60;67.40;;;;;;10512113;28;20580;-25
2021/05/30 10:52:33;;;;;;;4.30;2.70;;;16.60;67.50;;;;;;10496428;28;20790;-27
2021/05/30 10:57:55;;;;;;;4.83;3.00;;;16.60;67.20;;;;;;10523694;28;20244;-25
2021/05/30 11:03:16;;;;;;;3.67;2.53;;;16.60;67.30;;;;;;10491788;28;20210;-23
2021/05/30 11:08:57;;;;;;;4.93;3.00;;;16.60;67.40;;;;;;10514022;28;20216;-25
2021/05/30 11:14:19;;;;;;;4.73;2.63;;;16.60;67.20;;;;;;10491558;28;20276;-25
2021/05/30 11:19:40;;;;;;;6.00;2.73;;;16.70;66.60;;;;;;10508829;28;20212;-22
2021/05/30 11:25:04;;;;;;;6.90;2.80;;;16.70;66.00;;;;;;10536260;28;20201;-24
2021/05/30 11:30:43;;;;;;;5.37;2.63;;;16.80;65.50;;;;;;10508236;28;20232;-24
2021/05/30 11:36:07;;;;;;;8.93;3.33;;;16.80;65.30;;;;;;10493534;28;20201;-25
2021/05/30 11:41:31;;;;;;;7.90;3.03;;;16.80;65.40;;;;;;10509008;28;20220;-26
2021/05/30 11:46:55;;;;;;;5.17;3.03;;;16.90;65.30;;;;;;10504892;28;20214;-24
2021/05/30 11:52:19;;;;;;;6.10;2.57;;;16.90;65.40;;;;;;10511589;28;20555;-24
2021/05/30 11:57:42;;;;;;;4.40;2.60;;;16.90;65.40;;;;;;10530179;28;20221;-24
2021/05/30 12:03:11;;;;;;;5.10;2.93;;;16.90;65.40;;;;;;10533136;28;20204;-24
2021/05/30 12:08:32;;;;;;;7.20;2.73;;;16.90;66.40;;;;;;10533886;28;20613;-25
2021/05/30 12:14:03;;;;;;;4.63;2.87;;;16.80;66.20;;;;;;10524545;28;20197;-25
2021/05/30 12:19:41;;;;;;;6.57;2.83;;;16.80;66.20;;;;;;10534309;28;20232;-23
2021/05/30 12:25:03;;;;;;;12.10;2.70;;;16.80;66.20;;;;;;10534599;28;20612;-23
2021/05/30 12:30:26;;;;;;;7.97;3.10;;;16.80;66.30;;;;;;10525032;28;20275;-24
2021/05/30 12:35:50;;;;;;;4.57;2.57;;;16.80;66.50;;;;;;10491947;28;20199;-24
2021/05/30 12:41:13;;;;;;;6.37;2.53;;;16.80;66.70;;;;;;10505720;28;20262;-24
2021/05/30 12:46:37;;;;;;;3.50;2.77;;;16.80;66.70;;;;;;10524803;28;20225;-23
2021/05/30 12:52:00;;;;;;;3.43;2.60;;;16.70;66.80;;;;;;10532947;28;20252;-23
2021/05/30 12:57:33;;;;;;;2.50;2.30;;;16.70;67.00;;;;;;10534364;28;20193;-26
2021/05/30 13:03:01;;;;;;;3.90;2.63;;;16.70;66.80;;;;;;10532450;28;20200;-25
2021/05/30 13:08:25;;;;;;;3.27;2.63;;;16.70;66.90;;;;;;10532045;28;20225;-23
2021/05/30 13:13:46;;;;;;;4.43;2.80;;;16.70;66.90;;;;;;10526918;28;20673;-24
2021/05/30 13:19:11;;;;;;;4.43;2.60;;;16.70;67.00;;;;;;10541448;28;20702;-26
2021/05/30 13:24:38;;;;;;;3.57;2.70;;;16.70;66.90;;;;;;10539880;28;20250;-23
2021/05/30 13:30:02;;;;;;;3.43;2.70;;;16.70;66.80;;;;;;10539763;28;20303;-22
2021/05/30 13:35:25;;;;;;;4.40;2.87;;;16.70;66.70;;;;;;10515102;28;20676;-25
2021/05/30 13:40:48;;;;;;;2.93;2.67;;;16.70;67.20;;;;;;10509355;28;20231;-22
2021/05/30 13:46:09;;;;;;;3.97;3.00;;;16.70;66.80;;;;;;10537699;28;20230;-23
2021/05/30 13:51:32;;;;;;;3.67;2.90;;;16.70;67.20;;;;;;10529847;22;20225;-22
2021/05/30 13:56:53;;;;;;;3.50;2.60;;;16.70;67.00;;;;;;10541585;28;20193;-23
2021/05/30 14:02:15;;;;;;;3.13;2.70;;;16.70;67.00;;;;;;10566552;28;20227;-23
2021/05/30 14:07:38;;;;;;;3.80;2.70;;;16.70;67.10;;;;;;10581125;28;20292;-24
2021/05/30 14:12:59;;;;;;;5.50;2.67;;;16.70;66.90;;;;;;10541088;28;20194;-23
2021/05/30 14:18:21;;;;;;;3.77;2.50;;;16.70;66.70;;;;;;10545124;28;20581;-23
2021/05/30 14:23:44;;;;;;;4.93;2.73;;;16.70;66.80;;;;;;10552628;28;20204;-23
2021/05/30 14:29:05;;;;;;;3.03;2.50;;;16.70;66.60;;;;;;10570181;28;20215;-23
2021/05/30 14:34:27;;;;;;;4.47;2.93;;;16.70;67.00;;;;;;10580531;28;20196;-23
2021/05/30 14:39:49;;;;;;;4.33;2.70;;;16.70;66.30;;;;;;10578585;28;20216;-22
2021/05/30 14:45:12;;;;;;;4.67;2.80;;;16.70;66.00;;;;;;10548308;28;20200;-24
2021/05/30 14:50:34;;;;;;;4.90;2.93;;;16.70;64.80;;;;;;10580286;28;20224;-23
2021/05/30 14:55:56;;;;;;;5.27;2.73;;;16.70;64.30;;;;;;10557024;28;20189;-23
2021/05/30 15:01:18;;;;;;;5.70;2.67;;;16.70;64.40;;;;;;10577959;28;20221;-22
2021/05/30 15:06:40;;;;;;;4.00;2.80;;;16.80;63.70;;;;;;10580362;28;20223;-23
2021/05/30 15:12:02;;;;;;;4.83;2.43;;;16.80;63.10;;;;;;10564290;28;20218;-23
2021/05/30 15:17:24;;;;;;;5.00;2.40;;;16.80;62.70;;;;;;10536791;28;20193;-23
2021/05/30 15:22:48;;;;;;;3.90;2.63;;;16.70;63.10;;;;;;10535808;28;20204;-23
2021/05/30 15:28:11;;;;;;;3.77;2.47;;;16.70;62.30;;;;;;10535841;28;20248;-23
2021/05/30 15:33:32;;;;;;;5.50;2.97;;;16.80;62.60;;;;;;10534721;28;20668;-24
2021/05/30 15:38:55;;;;;;;4.73;3.00;;;16.80;63.20;;;;;;10534991;28;20222;-23
2021/05/30 15:44:17;;;;;;;4.10;2.63;;;16.70;62.50;;;;;;10542180;28;20616;-23
2021/05/30 15:49:39;;;;;;;5.97;3.10;;;16.80;62.10;;;;;;10577611;28;20253;-22
2021/05/30 15:55:00;;;;;;;4.37;3.10;;;16.80;62.70;;;;;;10549145;28;20682;-23
2021/05/30 16:00:23;;;;;;;5.73;3.03;;;16.80;62.10;;;;;;10535554;28;20214;-22
2021/05/30 16:05:44;;;;;;;4.60;3.03;;;16.80;62.30;;;;;;10534266;28;20202;-23
2021/05/30 16:11:06;;;;;;;5.80;3.30;;;16.80;62.60;;;;;;10531942;28;20219;-22
2021/05/30 16:16:29;;;;;;;7.50;3.03;;;16.80;62.50;;;;;;10528870;28;20250;-22
2021/05/30 16:21:50;;;;;;;10.73;3.73;;;16.80;63.20;;;;;;10528469;28;20225;-22
2021/05/30 16:27:14;;;;;;;4.73;3.03;;;16.80;63.70;;;;;;10529268;28;20211;-23
2021/05/30 16:32:36;;;;;;;6.23;3.13;;;16.80;64.10;;;;;;10528838;28;20209;-23
2021/05/30 16:37:59;;;;;;;6.33;3.03;;;16.80;64.10;;;;;;10528042;28;20205;-22
2021/05/30 16:43:20;;;;;;;4.60;2.83;;;16.80;64.40;;;;;;10542637;28;20201;-22
2021/05/30 16:48:43;;;;;;;4.60;3.37;;;16.80;65.20;;;;;;10552142;28;20228;-22
2021/05/30 16:54:05;;;;;;;7.43;3.17;;;16.80;64.00;;;;;;10531021;28;20198;-23
2021/05/30 16:59:26;;;;;;;7.23;3.03;;;16.80;63.40;;;;;;10536685;28;20584;-20
2021/05/30 17:04:50;;;;;;;6.73;3.20;;;16.80;62.80;;;;;;10535975;28;20205;-22
2021/05/30 17:10:12;;;;;;;4.87;3.10;;;16.80;62.70;;;;;;10535781;28;20218;-22
2021/05/30 17:15:39;;;;;;;4.00;3.03;;;16.90;62.40;;;;;;10537218;28;20676;-22
2021/05/30 17:21:02;;;;;;;6.20;3.33;;;16.90;62.70;;;;;;10541594;28;20213;-23
2021/05/30 17:26:24;;;;;;;5.60;2.70;;;16.90;62.00;;;;;;10541393;28;20713;-23
2021/05/30 17:31:46;;;;;;;5.70;3.10;;;16.90;62.50;;;;;;10539660;28;20220;-22
2021/05/30 17:37:09;;;;;;;7.23;3.50;;;16.90;62.60;;;;;;10540821;28;20543;-23
2021/05/30 17:42:31;;;;;;;7.83;3.60;;;16.90;62.00;;;;;;10536655;28;20586;-23
2021/05/30 17:47:52;;;;;;;5.57;2.80;;;16.80;61.50;;;;;;10574344;27;20252;-22
2021/05/30 17:53:15;;;;;;;7.57;3.30;;;16.90;62.30;;;;;;10559699;28;20200;-22
2021/05/30 17:58:37;;;;;;;4.13;2.67;;;16.90;62.60;;;;;;10544390;28;20217;-22
2021/05/30 18:03:58;;;;;;;5.80;3.07;;;16.90;62.60;;;;;;10540191;28;20556;-22
2021/05/30 18:09:21;;;;;;;5.33;2.90;;;16.90;62.70;;;;;;10540328;28;20230;-22
2021/05/30 18:14:43;;;;;;;3.77;2.60;;;16.80;62.90;;;;;;10539266;28;20193;-22
2021/05/30 18:20:06;;;;;;;4.20;2.57;;;16.80;62.90;;;;;;10539375;28;20664;-22
2021/05/30 18:25:30;;;;;;;5.17;2.90;;;16.90;63.60;;;;;;10551436;28;20279;-23
2021/05/30 18:30:53;;;;;;;4.33;2.47;;;16.80;63.20;;;;;;10579790;28;20571;-22
2021/05/30 18:36:16;;;;;;;4.30;2.80;;;16.80;63.50;;;;;;10581115;28;20284;-19
2021/05/30 18:41:39;;;;;;;7.67;2.87;;;16.80;63.90;;;;;;10559940;28;20571;-23
2021/05/30 18:47:01;;;;;;;5.23;2.80;;;16.80;64.00;;;;;;10572659;28;20274;-22
2021/05/30 18:52:22;;;;;;;3.13;2.77;;;16.80;64.20;;;;;;10577913;28;20710;-22
2021/05/30 18:57:45;;;;;;;4.93;2.47;;;16.80;64.40;;;;;;10530307;28;20200;-23
2021/05/30 19:03:06;;;;;;;4.43;2.77;;;16.80;65.00;;;;;;10537780;28;20193;-22
2021/05/30 19:08:28;;;;;;;8.20;2.80;;;16.80;64.70;;;;;;10534224;28;20429;-21
2021/05/30 19:13:51;;;;;;;5.67;2.30;;;17.20;63.70;;;;;;10536059;28;20570;-22
2021/05/30 19:19:12;;;;;;;6.07;2.70;;;17.00;64.20;;;;;;10533380;28;20555;-22
2021/05/30 19:24:34;;;;;;;7.33;3.00;;;16.90;64.50;;;;;;10536247;28;20198;-23
2021/05/30 19:29:56;;;;;;;5.87;2.80;;;16.90;64.70;;;;;;10534511;28;20216;-23
2021/05/30 19:35:18;;;;;;;4.80;2.10;;;16.90;64.90;;;;;;10534618;28;20675;-22
2021/05/30 19:40:39;;;;;;;4.67;2.40;;;16.90;65.10;;;;;;10504235;28;20707;-22
2021/05/30 19:46:02;;;;;;;4.10;2.60;;;16.90;65.20;;;;;;10562662;28;20211;-21
2021/05/30 19:51:24;;;;;;;4.97;2.70;;;16.80;65.30;;;;;;10575576;28;20216;-23
2021/05/30 19:56:46;;;;;;;3.93;2.53;;;16.80;65.30;;;;;;10521130;28;20197;-21
2021/05/30 20:02:09;;;;;;;3.60;2.73;;;16.80;65.40;;;;;;10537848;28;20375;-19
2021/05/30 20:07:30;;;;;;;2.97;2.30;;;16.80;65.50;;;;;;10534590;28;20700;-23
2021/05/30 20:12:54;;;;;;;3.20;2.60;;;16.80;65.50;;;;;;10535545;28;20695;-21
2021/05/30 20:18:17;;;;;;;5.07;3.27;;;16.80;65.70;;;;;;10533795;28;20242;-22
2021/05/30 20:23:39;;;;;;;3.63;2.60;;;16.80;65.80;;;;;;10540549;28;20198;-22
2021/05/30 20:29:06;;;;;;;4.73;2.60;;;16.80;65.90;;;;;;10549112;28;20227;-21
2021/05/30 20:34:28;;;;;;;3.17;2.80;;;16.80;66.00;;;;;;10544003;28;20257;-21
2021/05/30 20:39:51;;;;;;;4.53;3.30;;;16.80;66.00;;;;;;10556107;28;20294;-22
2021/05/30 20:45:13;;;;;;;3.60;2.77;;;16.80;66.10;;;;;;10548566;28;20196;-21
2021/05/30 20:50:37;;;;;;;4.30;2.83;;;16.80;66.20;;;;;;10548432;28;20223;-22
2021/05/30 20:55:59;;;;;;;3.37;2.87;;;16.80;66.30;;;;;;10547742;28;20225;-22
2021/05/30 21:01:20;;;;;;;3.67;2.63;;;16.80;66.30;;;;;;10548121;28;20268;-22
2021/05/30 21:06:43;;;;;;;3.77;3.27;;;16.80;66.40;;;;;;10548291;28;20216;-23
2021/05/30 21:12:05;;;;;;;4.20;3.00;;;16.80;66.50;;;;;;10589263;22;20230;-23
2021/05/30 21:17:27;;;;;;;5.83;3.70;;;16.80;66.50;;;;;;10525077;28;20241;-23
2021/05/30 21:22:50;;;;;;;5.30;3.50;;;16.80;66.70;;;;;;10526784;28;20720;-24
2021/05/30 21:28:11;;;;;;;5.47;3.87;;;16.80;67.00;;;;;;10547733;28;20683;-25
2021/05/30 21:33:33;;;;;;;6.30;3.90;;;16.80;67.20;;;;;;10544814;28;20230;-23
2021/05/30 21:38:55;;;;;;;7.80;4.87;;;16.80;67.40;;;;;;10506473;28;20205;-23
2021/05/30 21:44:17;;;;;;;7.37;4.63;;;16.80;67.70;;;;;;10512533;28;20222;-23
2021/05/30 21:49:38;;;;;;;7.53;4.80;;;16.80;68.00;;;;;;10498120;28;20288;-24
2021/05/30 21:55:01;;;;;;;8.97;5.03;;;16.80;68.30;;;;;;10531546;28;20217;-23
2021/05/30 22:00:23;;;;;;;10.07;5.80;;;16.80;68.50;;;;;;10541012;28;20192;-23
2021/05/30 22:05:47;;;;;;;9.30;5.50;;;16.80;68.90;;;;;;10515937;28;20201;-23
2021/05/30 22:11:09;;;;;;;6.17;5.00;;;16.80;68.90;;;;;;10471552;28;20218;-23
2021/05/30 22:16:35;;;;;;;11.93;5.70;;;16.80;69.00;;;;;;10457107;28;20199;-23
2021/05/30 22:21:58;;;;;;;10.67;5.73;;;16.80;69.20;;;;;;10455797;28;20215;-23
2021/05/30 22:27:20;;;;;;;8.17;5.77;;;16.80;69.30;;;;;;10455849;28;20214;-25
2021/05/30 22:32:42;;;;;;;6.97;5.67;;;16.80;69.50;;;;;;10456436;28;20221;-23
2021/05/30 22:38:04;;;;;;;9.90;6.87;;;16.80;69.70;;;;;;10514028;28;20193;-23
2021/05/30 22:43:26;;;;;;;6.43;5.77;;;16.80;69.80;;;;;;10515397;28;20236;-23
2021/05/30 22:48:48;;;;;;;9.93;6.00;;;16.80;69.80;;;;;;10478863;28;20224;-23
2021/05/30 22:54:10;;;;;;;9.33;5.63;;;16.80;69.90;;;;;;10455460;28;20229;-23
2021/05/30 22:59:32;;;;;;;8.30;5.87;;;16.80;69.80;;;;;;10455069;28;20198;-23
2021/05/30 23:04:54;;;;;;;8.83;5.47;;;16.80;69.60;;;;;;10455528;28;20588;-23
2021/05/30 23:10:21;;;;;;;9.40;5.87;;;16.80;69.60;;;;;;10454996;28;20240;-23
2021/05/30 23:15:44;;;;;;;8.43;5.33;;;16.80;69.60;;;;;;10453615;28;20691;-23
2021/05/30 23:21:05;;;;;;;7.70;5.23;;;16.80;69.50;;;;;;10453775;28;20214;-23
2021/05/30 23:26:27;;;;;;;9.67;5.50;;;16.80;70.10;;;;;;10453800;28;20199;-25
2021/05/30 23:31:53;;;;;;;8.40;5.47;;;16.80;69.60;;;;;;10454316;28;20233;-23
2021/05/30 23:37:15;;;;;;;8.37;5.37;;;16.80;69.70;;;;;;10506700;28;20243;-23
2021/05/30 23:42:37;;;;;;;5.83;4.63;;;16.70;69.50;;;;;;10489005;28;20215;-23
2021/05/30 23:48:00;;;;;;;8.60;5.33;;;16.70;69.60;;;;;;10498700;28;20282;-24
2021/05/30 23:53:21;;;;;;;9.33;5.67;;;16.70;69.50;;;;;;10531947;28;20263;-23
2021/05/30 23:58:43;;;;;;;8.77;5.70;;;16.70;69.30;;;;;;10515620;28;20193;-24
